Time;durP1;ratioP1;P1;durP2;ratioP2;P2;SDS_P1;SDS_P2;PMS_P1;PMS_P2;Temp;Humidity;BMP_temperature;BMP_pressure;BME280_temperature;BME280_humidity;BME280_pressure;Samples;Min_cycle;Max_cycle;Signal;HPM_P1;HPM_P2
2022/04/03 00:00:12;;;;;;;1.40;1.30;;;-0.90;62.80;;;;;;612637;234;26588;-59
2022/04/03 00:02:40;;;;;;;1.45;1.35;;;-0.90;63.00;;;;;;612622;231;26576;-61
2022/04/03 00:05:08;;;;;;;1.48;1.37;;;-0.90;63.20;;;;;;612376;234;26867;-61
2022/04/03 00:07:35;;;;;;;1.58;1.48;;;-0.90;63.50;;;;;;612669;235;26628;-61
2022/04/03 00:10:02;;;;;;;1.92;1.30;;;-0.90;63.70;;;;;;612408;235;26856;-62
2022/04/03 00:12:29;;;;;;;1.95;1.30;;;-0.90;63.70;;;;;;612404;235;26658;-61
2022/04/03 00:14:56;;;;;;;1.52;1.42;;;-0.90;63.80;;;;;;612342;235;26841;-61
2022/04/03 00:17:23;;;;;;;1.33;1.23;;;-0.90;63.90;;;;;;612360;235;26617;-61
2022/04/03 00:19:51;;;;;;;1.45;1.35;;;-0.90;64.20;;;;;;612437;235;27160;-61
2022/04/03 00:22:18;;;;;;;2.25;1.45;;;-1.00;64.40;;;;;;612444;235;26612;-61
2022/04/03 00:24:45;;;;;;;1.35;1.25;;;-1.00;64.60;;;;;;612303;235;26625;-61
2022/04/03 00:27:13;;;;;;;1.33;1.23;;;-1.00;64.90;;;;;;612319;235;26617;-61
2022/04/03 00:29:41;;;;;;;1.70;1.60;;;-1.00;65.00;;;;;;612410;235;26628;-61
2022/04/03 00:32:09;;;;;;;1.42;1.33;;;-1.00;65.00;;;;;;612341;235;26627;-60
2022/04/03 00:34:36;;;;;;;2.05;1.30;;;-1.00;65.00;;;;;;612358;234;26632;-62
2022/04/03 00:37:03;;;;;;;7.95;1.40;;;-1.00;65.00;;;;;;612419;235;26661;-62
2022/04/03 00:39:31;;;;;;;1.75;1.37;;;-1.00;65.20;;;;;;613787;232;26656;-61
2022/04/03 00:41:58;;;;;;;1.58;1.40;;;-1.00;65.10;;;;;;613646;234;26586;-61
2022/04/03 00:44:26;;;;;;;1.30;1.30;;;-1.00;65.10;;;;;;613223;234;26839;-61
2022/04/03 00:46:53;;;;;;;1.50;1.40;;;-1.00;65.10;;;;;;613172;234;26596;-61
2022/04/03 00:49:20;;;;;;;1.70;1.60;;;-1.00;65.20;;;;;;612988;235;26632;-60
2022/04/03 00:51:48;;;;;;;1.20;1.20;;;-0.90;65.20;;;;;;612974;234;26630;-61
2022/04/03 00:54:16;;;;;;;1.27;1.27;;;-0.90;65.10;;;;;;613016;235;26643;-61
2022/04/03 00:56:43;;;;;;;1.20;1.10;;;-0.90;65.10;;;;;;612805;234;26876;-61
2022/04/03 00:59:11;;;;;;;1.15;1.15;;;-0.90;65.20;;;;;;612704;234;26572;-61
2022/04/03 01:01:39;;;;;;;1.30;1.30;;;-0.90;65.40;;;;;;612724;234;26912;-61
2022/04/03 01:04:08;;;;;;;1.42;1.30;;;-0.90;66.00;;;;;;612709;231;26600;-61
2022/04/03 01:06:35;;;;;;;1.60;1.50;;;-0.90;66.30;;;;;;612671;234;26634;-61
2022/04/03 01:09:03;;;;;;;1.83;1.73;;;-1.00;65.50;;;;;;612737;234;26830;-61
2022/04/03 01:11:30;;;;;;;1.52;1.42;;;-0.90;65.40;;;;;;612596;235;26586;-60
2022/04/03 01:13:57;;;;;;;2.25;1.70;;;-0.90;65.30;;;;;;612854;235;26822;-61
2022/04/03 01:16:24;;;;;;;1.40;1.27;;;-0.90;65.40;;;;;;612357;230;26640;-61
2022/04/03 01:18:51;;;;;;;1.42;1.35;;;-0.90;65.50;;;;;;612452;234;26889;-61
2022/04/03 01:21:19;;;;;;;1.30;1.20;;;-0.90;65.70;;;;;;612458;234;26653;-61
2022/04/03 01:23:46;;;;;;;1.10;1.10;;;-1.00;65.70;;;;;;612405;234;26865;-61
2022/04/03 01:26:14;;;;;;;2.20;1.33;;;-1.10;66.00;;;;;;612223;234;26683;-61
2022/04/03 01:28:42;;;;;;;1.30;1.20;;;-1.10;66.00;;;;;;612438;234;26651;-61
2022/04/03 01:31:10;;;;;;;1.30;1.20;;;-1.00;66.10;;;;;;612469;234;26632;-61
2022/04/03 01:33:38;;;;;;;1.67;1.50;;;-1.10;65.90;;;;;;612408;234;26666;-61
2022/04/03 01:36:06;;;;;;;1.92;1.40;;;-1.10;65.90;;;;;;612368;234;26658;-61
2022/04/03 01:38:33;;;;;;;1.50;1.40;;;-1.10;65.50;;;;;;612419;235;26628;-61
2022/04/03 01:41:01;;;;;;;1.58;1.48;;;-1.10;65.70;;;;;;612401;235;26693;-61
2022/04/03 01:43:28;;;;;;;1.98;1.37;;;-1.10;65.90;;;;;;612382;234;26634;-61
2022/04/03 01:45:55;;;;;;;1.30;1.20;;;-1.10;65.80;;;;;;612336;234;26908;-60
2022/04/03 01:48:22;;;;;;;1.60;1.30;;;-1.10;65.70;;;;;;612447;234;26608;-62
2022/04/03 01:50:49;;;;;;;1.70;1.33;;;-1.10;65.80;;;;;;613583;232;26869;-61
2022/04/03 01:53:17;;;;;;;1.83;1.20;;;-1.00;65.30;;;;;;613644;234;26598;-61
2022/04/03 01:55:44;;;;;;;1.10;1.10;;;-0.90;65.30;;;;;;613304;234;26854;-60
2022/04/03 01:58:11;;;;;;;1.05;1.05;;;-0.90;65.00;;;;;;613283;234;26590;-61
2022/04/03 02:00:38;;;;;;;1.25;1.15;;;-0.80;64.80;;;;;;612954;235;27027;-61
2022/04/03 02:03:06;;;;;;;1.33;1.33;;;-0.60;64.60;;;;;;613013;234;26627;-61
2022/04/03 02:05:34;;;;;;;1.30;1.20;;;-0.60;64.60;;;;;;613001;235;26656;-60
2022/04/03 02:08:01;;;;;;;1.30;1.20;;;-0.50;64.10;;;;;;612829;235;26650;-60
2022/04/03 02:10:30;;;;;;;1.10;1.10;;;-0.30;63.20;;;;;;612712;235;26605;-61
2022/04/03 02:12:58;;;;;;;1.30;1.20;;;-0.30;63.30;;;;;;612735;235;26576;-61
2022/04/03 02:15:26;;;;;;;1.30;1.30;;;-0.30;63.30;;;;;;610241;235;26623;-61
2022/04/03 02:17:53;;;;;;;1.08;1.08;;;-0.20;62.90;;;;;;610199;235;26616;-62
2022/04/03 02:20:20;;;;;;;1.10;1.10;;;-0.20;63.30;;;;;;610225;236;26657;-61
2022/04/03 02:22:48;;;;;;;1.15;1.15;;;0.00;62.30;;;;;;610114;236;26857;-61
2022/04/03 02:25:15;;;;;;;1.05;1.05;;;0.00;62.30;;;;;;610129;236;26870;-61
2022/04/03 02:27:43;;;;;;;1.40;1.30;;;0.00;62.00;;;;;;609898;236;26573;-60
2022/04/03 02:30:10;;;;;;;1.33;1.15;;;0.10;62.00;;;;;;609815;235;26882;-61
2022/04/03 02:32:37;;;;;;;1.45;1.35;;;0.20;61.70;;;;;;609829;235;26823;-61
2022/04/03 02:35:06;;;;;;;1.23;1.10;;;0.20;61.60;;;;;;609866;235;26629;-62
2022/04/03 02:37:33;;;;;;;1.20;1.10;;;0.30;61.60;;;;;;609898;235;26555;-61
2022/04/03 02:40:01;;;;;;;1.83;1.30;;;0.40;61.40;;;;;;609855;235;26825;-61
2022/04/03 02:42:28;;;;;;;1.30;1.20;;;0.50;61.50;;;;;;609868;235;26615;-61
2022/04/03 02:44:57;;;;;;;1.10;1.00;;;0.40;61.40;;;;;;609861;235;26581;-61
2022/04/03 02:47:24;;;;;;;1.30;1.20;;;0.40;61.40;;;;;;609893;236;26870;-61
2022/04/03 02:49:53;;;;;;;1.40;1.30;;;0.50;61.30;;;;;;609863;235;26583;-61
2022/04/03 02:52:20;;;;;;;1.00;1.00;;;0.40;61.20;;;;;;609910;235;26637;-60
2022/04/03 02:54:48;;;;;;;1.23;1.20;;;0.30;61.10;;;;;;609812;235;26563;-61
2022/04/03 02:57:15;;;;;;;1.05;1.05;;;0.30;61.10;;;;;;609863;235;26597;-61
2022/04/03 02:59:43;;;;;;;1.33;1.23;;;0.30;61.40;;;;;;609849;235;26596;-62
2022/04/03 03:02:10;;;;;;;1.20;1.20;;;0.30;61.30;;;;;;610951;233;26631;-61
2022/04/03 03:04:38;;;;;;;1.50;1.40;;;0.40;61.30;;;;;;611082;234;26598;-61
2022/04/03 03:07:05;;;;;;;1.40;1.30;;;0.40;61.30;;;;;;610693;231;26686;-61
2022/04/03 03:09:32;;;;;;;1.40;1.30;;;0.40;61.40;;;;;;610798;235;26573;-60
2022/04/03 03:11:59;;;;;;;1.35;1.25;;;0.40;61.80;;;;;;610521;235;26855;-61
2022/04/03 03:14:27;;;;;;;1.23;1.12;;;0.40;61.40;;;;;;610460;236;26604;-61
2022/04/03 03:16:54;;;;;;;1.10;1.10;;;0.30;61.70;;;;;;610483;235;26565;-61
2022/04/03 03:19:22;;;;;;;0.98;0.98;;;0.30;62.00;;;;;;610433;235;26579;-61
2022/04/03 03:21:50;;;;;;;2.40;1.30;;;0.30;62.90;;;;;;610170;235;26640;-61
2022/04/03 03:24:17;;;;;;;1.10;1.00;;;0.30;62.20;;;;;;610116;236;27349;-61
2022/04/03 03:26:44;;;;;;;1.35;1.25;;;0.30;62.50;;;;;;610168;235;26635;-61
2022/04/03 03:29:12;;;;;;;0.85;0.85;;;0.40;62.50;;;;;;610158;236;26862;-61
2022/04/03 03:31:39;;;;;;;1.10;1.10;;;0.40;62.50;;;;;;610133;232;26619;-61
2022/04/03 03:34:06;;;;;;;1.10;1.10;;;0.40;62.40;;;;;;610153;235;26627;-68
2022/04/03 03:36:35;;;;;;;1.10;1.10;;;0.50;62.30;;;;;;610164;235;26654;-69
2022/04/03 03:39:02;;;;;;;1.10;1.00;;;0.50;62.30;;;;;;609889;231;26581;-68
2022/04/03 03:41:29;;;;;;;1.30;1.20;;;0.50;62.00;;;;;;609841;235;26585;-69
2022/04/03 03:43:56;;;;;;;1.25;1.08;;;0.50;62.40;;;;;;609889;235;26626;-68
2022/04/03 03:46:23;;;;;;;1.83;1.20;;;0.60;61.70;;;;;;609893;236;26956;-68
2022/04/03 03:48:51;;;;;;;1.12;1.12;;;0.60;61.10;;;;;;609834;236;26581;-69
2022/04/03 03:51:18;;;;;;;1.30;1.20;;;0.60;61.20;;;;;;609866;236;26581;-68
2022/04/03 03:53:46;;;;;;;1.00;1.00;;;0.50;60.90;;;;;;609879;236;26567;-68
2022/04/03 03:56:14;;;;;;;1.25;1.23;;;0.50;61.10;;;;;;609835;236;26609;-69
2022/04/03 03:58:41;;;;;;;1.12;1.02;;;0.50;61.10;;;;;;609783;236;26981;-69
2022/04/03 04:01:08;;;;;;;1.62;1.20;;;0.50;60.70;;;;;;609824;236;26597;-68
2022/04/03 04:03:36;;;;;;;1.37;1.27;;;0.50;60.20;;;;;;609884;236;26561;-68
2022/04/03 04:06:03;;;;;;;1.80;1.30;;;0.60;60.30;;;;;;609760;235;26849;-69
2022/04/03 04:08:30;;;;;;;1.25;1.25;;;0.60;60.30;;;;;;609850;236;26587;-68
2022/04/03 04:10:58;;;;;;;1.20;1.10;;;0.60;60.60;;;;;;609851;236;26634;-69
2022/04/03 04:13:25;;;;;;;1.00;1.00;;;0.60;60.30;;;;;;610660;233;26583;-69
2022/04/03 04:15:54;;;;;;;1.45;1.30;;;0.60;59.60;;;;;;611200;234;26858;-68
2022/04/03 04:18:20;;;;;;;1.10;1.10;;;0.60;59.90;;;;;;610889;235;27286;-69
2022/04/03 04:20:48;;;;;;;1.00;1.00;;;0.50;59.50;;;;;;610817;235;26580;-68
2022/04/03 04:23:16;;;;;;;0.90;0.90;;;0.50;59.60;;;;;;610532;235;26600;-68
2022/04/03 04:25:43;;;;;;;1.00;1.00;;;0.50;59.60;;;;;;610425;235;26621;-69
2022/04/03 04:28:11;;;;;;;2.15;1.27;;;0.40;59.50;;;;;;610487;236;26585;-69
2022/04/03 04:30:38;;;;;;;1.45;1.08;;;0.30;59.30;;;;;;610382;236;26855;-68
2022/04/03 04:33:06;;;;;;;1.62;1.23;;;0.40;59.50;;;;;;610123;235;26612;-69
2022/04/03 04:35:34;;;;;;;0.90;0.90;;;0.50;59.60;;;;;;609987;235;26912;-69
2022/04/03 04:38:02;;;;;;;1.20;1.20;;;0.40;59.40;;;;;;610116;236;26644;-69
2022/04/03 04:40:29;;;;;;;1.10;1.10;;;0.40;59.40;;;;;;610199;235;26921;-69
2022/04/03 04:42:57;;;;;;;1.20;1.10;;;0.40;59.30;;;;;;610121;235;26620;-68
2022/04/03 04:45:25;;;;;;;2.22;1.42;;;0.40;59.30;;;;;;610104;236;26694;-69
2022/04/03 04:47:59;;;;;;;1.10;1.10;;;0.40;59.10;;;;;;610138;235;26636;-68
2022/04/03 04:50:19;;;;;;;1.10;1.08;;;0.40;59.30;;;;;;609915;230;26826;-69
2022/04/03 04:52:46;;;;;;;1.10;1.10;;;0.40;59.40;;;;;;609882;236;26614;-68
2022/04/03 04:55:13;;;;;;;1.27;1.17;;;0.30;59.20;;;;;;609829;235;26837;-68
2022/04/03 04:57:41;;;;;;;1.12;1.12;;;0.30;59.30;;;;;;609871;236;26583;-69
2022/04/03 05:00:10;;;;;;;1.12;1.10;;;0.30;59.40;;;;;;609864;236;26584;-69
2022/04/03 05:02:37;;;;;;;0.95;0.95;;;0.30;59.40;;;;;;610231;235;26571;-68
2022/04/03 05:05:05;;;;;;;1.12;1.10;;;0.20;59.20;;;;;;610205;236;26812;-69
2022/04/03 05:07:32;;;;;;;1.00;1.00;;;0.30;59.20;;;;;;610256;235;26921;-68
2022/04/03 05:09:59;;;;;;;1.17;1.17;;;0.30;59.10;;;;;;610255;235;26565;-69
2022/04/03 05:12:26;;;;;;;1.62;1.12;;;0.30;59.00;;;;;;610250;236;26817;-69
2022/04/03 05:14:53;;;;;;;1.12;1.05;;;0.40;59.00;;;;;;610217;235;26553;-68
2022/04/03 05:17:20;;;;;;;1.10;1.10;;;0.50;58.90;;;;;;610250;236;26561;-69
2022/04/03 05:19:48;;;;;;;1.00;1.00;;;0.40;58.80;;;;;;610249;236;26556;-69
2022/04/03 05:22:16;;;;;;;1.08;1.08;;;0.40;58.80;;;;;;610249;235;26808;-68
2022/04/03 05:24:43;;;;;;;1.30;0.90;;;0.40;58.50;;;;;;610849;233;26572;-69
2022/04/03 05:27:10;;;;;;;0.90;0.90;;;0.40;58.40;;;;;;611210;235;27312;-69
2022/04/03 05:29:37;;;;;;;1.62;1.12;;;0.40;58.20;;;;;;610908;235;26660;-68
2022/04/03 05:32:05;;;;;;;1.00;1.00;;;0.30;57.80;;;;;;610725;235;26866;-68
2022/04/03 05:34:32;;;;;;;1.33;1.27;;;0.30;57.70;;;;;;610490;231;26584;-68
2022/04/03 05:36:59;;;;;;;1.37;1.27;;;0.30;57.60;;;;;;610433;236;26847;-68
2022/04/03 05:39:27;;;;;;;1.10;1.10;;;0.20;57.60;;;;;;610401;236;26580;-68
2022/04/03 05:41:55;;;;;;;1.40;1.40;;;0.20;57.60;;;;;;610489;236;26580;-67
2022/04/03 05:44:22;;;;;;;1.40;1.30;;;0.20;57.90;;;;;;610124;236;26629;-68
2022/04/03 05:46:49;;;;;;;1.10;1.10;;;0.20;57.90;;;;;;610042;235;26659;-68
2022/04/03 05:49:16;;;;;;;1.17;1.17;;;0.30;58.00;;;;;;610195;236;26595;-69
2022/04/03 05:51:43;;;;;;;1.30;1.20;;;0.40;57.90;;;;;;610227;235;26897;-67
2022/04/03 05:54:11;;;;;;;1.45;1.20;;;0.50;57.80;;;;;;610215;235;26640;-69
2022/04/03 05:56:38;;;;;;;1.10;1.10;;;0.40;57.50;;;;;;610214;236;26656;-68
2022/04/03 05:59:06;;;;;;;1.10;1.10;;;0.50;57.80;;;;;;610259;236;26640;-68
2022/04/03 06:01:34;;;;;;;1.00;1.00;;;0.60;57.70;;;;;;609976;236;26637;-68
2022/04/03 06:04:01;;;;;;;1.42;1.23;;;0.60;57.60;;;;;;609823;236;27293;-68
2022/04/03 06:06:29;;;;;;;1.08;1.08;;;0.70;57.30;;;;;;609844;236;26622;-68
2022/04/03 06:08:57;;;;;;;1.05;1.05;;;0.70;57.40;;;;;;609874;230;26569;-68
2022/04/03 06:11:25;;;;;;;1.00;1.00;;;0.70;57.60;;;;;;609920;236;26600;-68
2022/04/03 06:13:53;;;;;;;1.02;1.02;;;0.80;57.70;;;;;;609884;236;26955;-69
2022/04/03 06:16:21;;;;;;;1.00;1.00;;;0.80;57.50;;;;;;609887;236;27260;-68
2022/04/03 06:18:48;;;;;;;1.10;1.10;;;0.80;57.60;;;;;;609893;235;26847;-68
2022/04/03 06:21:16;;;;;;;1.40;1.30;;;1.00;57.30;;;;;;609899;235;26591;-68
2022/04/03 06:23:44;;;;;;;1.23;1.23;;;1.00;57.30;;;;;;609801;236;26597;-68
2022/04/03 06:26:12;;;;;;;1.10;1.10;;;1.00;57.30;;;;;;609878;236;26623;-68
2022/04/03 06:28:38;;;;;;;1.00;1.00;;;0.90;57.20;;;;;;609872;235;26632;-69
2022/04/03 06:31:05;;;;;;;0.95;0.95;;;0.70;57.50;;;;;;609890;236;26839;-69
2022/04/03 06:33:33;;;;;;;1.00;1.00;;;0.60;57.70;;;;;;609879;235;26581;-69
2022/04/03 06:36:00;;;;;;;1.17;1.08;;;0.60;57.80;;;;;;610209;233;26612;-68
2022/04/03 06:38:28;;;;;;;1.10;1.10;;;0.50;58.10;;;;;;611368;235;26627;-69
2022/04/03 06:40:56;;;;;;;1.10;1.10;;;0.60;58.00;;;;;;610960;231;26634;-68
2022/04/03 06:43:23;;;;;;;1.00;1.00;;;0.60;58.00;;;;;;610557;235;26947;-69
2022/04/03 06:45:50;;;;;;;1.10;1.10;;;0.80;57.90;;;;;;610534;235;26636;-69
2022/04/03 06:48:17;;;;;;;1.08;1.00;;;1.00;57.90;;;;;;610456;235;26822;-68
2022/04/03 06:50:44;;;;;;;1.27;1.27;;;1.20;57.30;;;;;;610441;235;26601;-68
2022/04/03 06:53:14;;;;;;;1.00;0.90;;;1.50;57.00;;;;;;610402;236;26849;-68
2022/04/03 06:55:41;;;;;;;1.20;1.10;;;1.50;56.70;;;;;;610128;231;26670;-68
2022/04/03 06:58:08;;;;;;;1.10;1.00;;;1.60;56.60;;;;;;610130;236;26765;-69
2022/04/03 07:00:38;;;;;;;5.60;1.50;;;1.90;55.90;;;;;;610023;235;26635;-70
2022/04/03 07:03:04;;;;;;;2.58;1.20;;;1.90;55.90;;;;;;610083;235;26850;-69
2022/04/03 07:05:32;;;;;;;1.40;1.20;;;2.00;55.60;;;;;;610073;235;26648;-71
2022/04/03 07:08:00;;;;;;;3.42;0.95;;;2.30;55.30;;;;;;609990;232;26643;-72
2022/04/03 07:10:28;;;;;;;1.35;0.95;;;2.20;55.20;;;;;;610052;236;26632;-70
2022/04/03 07:12:55;;;;;;;1.35;1.25;;;2.30;54.70;;;;;;609983;235;26599;-70
2022/04/03 07:15:22;;;;;;;2.28;2.08;;;2.50;54.80;;;;;;609832;235;27266;-70
2022/04/03 07:17:49;;;;;;;4.22;3.62;;;2.70;54.50;;;;;;609846;236;26599;-70
2022/04/03 07:20:16;;;;;;;9.00;4.97;;;2.80;54.70;;;;;;609848;231;26581;-70
2022/04/03 07:22:44;;;;;;;5.25;4.50;;;3.30;52.90;;;;;;609847;236;26588;-70
2022/04/03 07:25:12;;;;;;;4.95;4.28;;;3.30;52.90;;;;;;609831;235;26663;-70
2022/04/03 07:27:39;;;;;;;7.30;4.50;;;3.10;53.30;;;;;;609870;236;26825;-69
2022/04/03 07:30:08;;;;;;;11.10;4.62;;;3.30;53.60;;;;;;609853;235;26591;-70
2022/04/03 07:32:35;;;;;;;4.68;3.92;;;3.10;53.10;;;;;;610246;235;26557;-70
2022/04/03 07:35:03;;;;;;;5.75;4.40;;;3.20;52.90;;;;;;610198;235;26536;-70
2022/04/03 07:37:31;;;;;;;8.13;4.50;;;3.20;52.80;;;;;;609867;230;26830;-70
2022/04/03 07:39:58;;;;;;;5.47;4.00;;;3.30;53.50;;;;;;609860;236;26625;-70
2022/04/03 07:42:25;;;;;;;4.28;3.78;;;3.60;52.80;;;;;;609932;236;27335;-70
2022/04/03 07:44:53;;;;;;;5.03;4.28;;;3.60;52.30;;;;;;609859;235;26628;-68
2022/04/03 07:47:21;;;;;;;5.87;4.07;;;3.60;52.60;;;;;;610084;233;26611;-69
2022/04/03 07:49:48;;;;;;;7.35;3.97;;;3.60;52.60;;;;;;611439;235;26626;-69
2022/04/03 07:52:15;;;;;;;7.53;4.60;;;3.80;52.60;;;;;;611001;235;26596;-68
2022/04/03 07:54:42;;;;;;;5.37;3.72;;;3.80;52.60;;;;;;610688;235;26799;-68
2022/04/03 07:57:10;;;;;;;18.37;4.47;;;3.60;52.70;;;;;;610596;235;26603;-68
2022/04/03 07:59:37;;;;;;;4.85;3.90;;;4.00;53.10;;;;;;610374;236;26829;-68
2022/04/03 08:02:05;;;;;;;4.32;3.65;;;4.30;52.60;;;;;;610458;236;26597;-68
2022/04/03 08:04:33;;;;;;;5.45;3.67;;;4.30;52.90;;;;;;610368;236;27315;-68
2022/04/03 08:07:01;;;;;;;4.53;3.50;;;4.40;53.10;;;;;;610192;236;26889;-67
2022/04/03 08:09:28;;;;;;;3.40;3.10;;;4.40;53.10;;;;;;610211;236;26828;-67
2022/04/03 08:11:56;;;;;;;4.55;3.00;;;4.20;52.70;;;;;;610181;236;26616;-68
2022/04/03 08:14:24;;;;;;;5.85;3.22;;;4.20;52.90;;;;;;610142;235;26639;-68
2022/04/03 08:16:51;;;;;;;4.95;3.78;;;4.20;52.90;;;;;;610179;236;26651;-68
2022/04/03 08:19:19;;;;;;;4.22;3.28;;;4.50;52.90;;;;;;610226;236;26637;-68
2022/04/03 08:21:47;;;;;;;5.22;2.80;;;4.40;53.10;;;;;;610155;235;26610;-67
2022/04/03 08:24:14;;;;;;;3.65;3.10;;;4.40;52.90;;;;;;609892;236;26878;-67
2022/04/03 08:26:42;;;;;;;4.80;3.37;;;4.60;53.00;;;;;;609897;236;26612;-68
2022/04/03 08:29:08;;;;;;;4.25;2.83;;;4.20;52.80;;;;;;610236;235;26796;-68
2022/04/03 08:31:36;;;;;;;3.03;2.78;;;4.00;52.90;;;;;;610240;236;26544;-68
2022/04/03 08:34:03;;;;;;;3.35;2.70;;;4.10;53.10;;;;;;610126;235;26774;-68
2022/04/03 08:36:31;;;;;;;3.12;2.83;;;4.20;52.20;;;;;;609867;236;26609;-67
2022/04/03 08:38:58;;;;;;;2.70;2.50;;;4.20;52.20;;;;;;609905;236;26836;-67
2022/04/03 08:41:25;;;;;;;3.22;2.92;;;3.90;52.40;;;;;;609869;236;26573;-67
2022/04/03 08:43:52;;;;;;;3.22;2.70;;;3.80;51.90;;;;;;609757;236;27230;-67
2022/04/03 08:46:19;;;;;;;3.20;2.90;;;3.90;52.00;;;;;;609881;236;26618;-66
2022/04/03 08:48:47;;;;;;;2.50;2.30;;;3.90;51.00;;;;;;609747;236;26588;-68
2022/04/03 08:51:16;;;;;;;2.67;2.47;;;4.40;50.30;;;;;;609836;235;26580;-68
2022/04/03 08:53:43;;;;;;;3.33;2.45;;;4.90;50.20;;;;;;609871;236;26585;-67
2022/04/03 08:56:10;;;;;;;2.70;2.50;;;4.90;50.00;;;;;;609846;235;26885;-68
2022/04/03 08:58:37;;;;;;;2.83;2.25;;;5.20;48.90;;;;;;609845;236;26598;-67
2022/04/03 09:01:05;;;;;;;2.42;2.17;;;5.30;49.00;;;;;;611523;233;26576;-68
2022/04/03 09:03:32;;;;;;;3.53;2.20;;;5.50;48.70;;;;;;611022;235;26643;-68
2022/04/03 09:06:11;;;;;;;5.25;2.03;;;5.50;48.70;;;;;;610681;235;26821;-68
2022/04/03 09:08:38;;;;;;;3.58;2.22;;;5.70;48.40;;;;;;610628;235;26587;-68
2022/04/03 09:11:07;;;;;;;5.25;2.40;;;5.40;48.50;;;;;;610454;236;26581;-67
2022/04/03 09:13:34;;;;;;;2.15;2.00;;;5.10;46.70;;;;;;610395;236;26596;-68
2022/04/03 09:16:01;;;;;;;2.30;2.10;;;5.10;46.70;;;;;;610412;236;26803;-68
2022/04/03 09:18:41;;;;;;;3.20;1.90;;;5.20;46.20;;;;;;610220;236;26851;-68
2022/04/03 09:21:29;;;;;;;2.97;1.80;;;5.30;45.80;;;;;;610198;236;26624;-68
2022/04/03 09:24:02;;;;;;;2.03;1.83;;;5.30;45.90;;;;;;610121;235;26639;-67
2022/04/03 09:26:29;;;;;;;2.97;2.05;;;5.40;46.40;;;;;;610183;235;26673;-67
2022/04/03 09:29:09;;;;;;;1.67;1.58;;;5.60;46.90;;;;;;610150;235;26872;-66
2022/04/03 09:31:36;;;;;;;1.87;1.65;;;5.80;46.80;;;;;;610137;236;26853;-67
2022/04/03 09:34:05;;;;;;;1.90;1.77;;;5.80;46.00;;;;;;610173;235;26646;-61
2022/04/03 09:36:32;;;;;;;2.15;1.90;;;5.70;45.30;;;;;;609867;235;26844;-61
2022/04/03 09:39:06;;;;;;;1.75;1.65;;;5.80;45.00;;;;;;609891;230;26636;-60
2022/04/03 09:41:32;;;;;;;1.70;1.60;;;6.20;45.00;;;;;;609821;236;26581;-61
2022/04/03 09:43:59;;;;;;;2.42;1.80;;;6.20;44.90;;;;;;609876;231;26589;-60
2022/04/03 09:46:30;;;;;;;1.77;1.67;;;6.20;44.10;;;;;;609906;235;26648;-61
2022/04/03 09:48:54;;;;;;;5.62;2.10;;;6.10;44.20;;;;;;609830;235;27329;-61
2022/04/03 09:51:22;;;;;;;1.77;1.67;;;6.00;44.00;;;;;;609911;236;26583;-62
2022/04/03 09:53:52;;;;;;;2.67;1.58;;;6.30;44.50;;;;;;610223;235;26618;-62
2022/04/03 09:56:31;;;;;;;3.58;1.75;;;6.60;44.20;;;;;;610156;236;26577;-61
2022/04/03 09:58:58;;;;;;;1.48;1.40;;;6.40;44.40;;;;;;609824;236;26818;-61
2022/04/03 10:01:27;;;;;;;1.67;1.60;;;6.70;43.90;;;;;;609850;236;26595;-61
2022/04/03 10:03:55;;;;;;;1.58;1.48;;;6.80;44.10;;;;;;609784;236;26558;-61
2022/04/03 10:06:23;;;;;;;2.45;1.40;;;6.40;42.80;;;;;;609867;235;26624;-61
2022/04/03 10:08:50;;;;;;;1.90;1.80;;;7.00;42.10;;;;;;609892;231;26597;-62
2022/04/03 10:11:17;;;;;;;1.70;1.60;;;7.00;42.10;;;;;;610796;233;26851;-62
2022/04/03 10:13:45;;;;;;;2.08;1.60;;;7.10;42.10;;;;;;611253;234;26562;-61
2022/04/03 10:16:12;;;;;;;1.48;1.35;;;7.20;41.60;;;;;;610810;235;26861;-61
2022/04/03 10:18:40;;;;;;;1.60;1.50;;;6.90;41.90;;;;;;610754;235;26584;-62
2022/04/03 10:21:08;;;;;;;3.58;1.40;;;7.30;42.00;;;;;;610552;235;26780;-61
2022/04/03 10:23:35;;;;;;;1.58;1.50;;;7.40;41.90;;;;;;610387;235;26588;-62
2022/04/03 10:26:02;;;;;;;1.95;1.65;;;7.10;41.60;;;;;;610638;236;26585;-61
2022/04/03 10:28:29;;;;;;;17.33;2.33;;;7.30;42.10;;;;;;610821;236;26803;-63
2022/04/03 10:30:58;;;;;;;15.70;2.08;;;7.40;41.90;;;;;;610543;235;26614;-62
2022/04/03 10:33:25;;;;;;;80.57;13.80;;;7.10;41.70;;;;;;610505;236;26594;-62
2022/04/03 10:36:10;;;;;;;1999.90;247.63;;;7.00;40.70;;;;;;610525;235;26645;-62
2022/04/03 10:38:37;;;;;;;1999.90;230.27;;;6.90;40.60;;;;;;610721;235;26856;-62
2022/04/03 10:41:06;;;;;;;203.00;23.35;;;7.40;41.10;;;;;;610053;236;26625;-64
2022/04/03 10:43:32;;;;;;;65.20;14.82;;;7.90;40.50;;;;;;610006;236;26628;-64
2022/04/03 10:46:00;;;;;;;51.47;14.05;;;7.60;39.70;;;;;;609933;235;26675;-64
2022/04/03 10:48:28;;;;;;;85.32;18.55;;;7.20;39.90;;;;;;609891;236;26633;-64
2022/04/03 10:51:16;;;;;;;58.55;16.25;;;7.10;39.80;;;;;;609728;236;26581;-64
2022/04/03 10:53:44;;;;;;;73.78;17.20;;;6.60;40.10;;;;;;609811;235;26600;-64
2022/04/03 10:56:20;;;;;;;65.07;13.80;;;6.80;40.00;;;;;;609650;236;26620;-65
2022/04/03 10:58:48;;;;;;;58.72;12.85;;;6.70;39.90;;;;;;609878;235;26800;-63
2022/04/03 11:01:24;;;;;;;36.38;10.90;;;7.30;39.70;;;;;;609935;235;26580;-63
2022/04/03 11:03:53;;;;;;;39.05;11.25;;;7.60;39.90;;;;;;609749;230;26577;-64
2022/04/03 11:06:20;;;;;;;27.27;8.88;;;7.60;40.00;;;;;;609947;235;26607;-64
2022/04/03 11:08:54;;;;;;;28.75;8.50;;;7.70;38.90;;;;;;609961;236;26641;-64
2022/04/03 11:11:36;;;;;;;24.45;7.22;;;7.70;39.50;;;;;;609920;235;26584;-64
2022/04/03 11:14:03;;;;;;;17.75;6.68;;;7.70;39.60;;;;;;609819;236;26593;-63
2022/04/03 11:16:30;;;;;;;9.48;4.68;;;7.40;39.40;;;;;;609779;235;26573;-64
2022/04/03 11:19:05;;;;;;;6.72;2.50;;;7.30;39.40;;;;;;609789;235;26587;-64
2022/04/03 11:21:34;;;;;;;5.20;2.35;;;7.30;39.80;;;;;;609906;235;26564;-63
2022/04/03 11:24:03;;;;;;;8.75;2.37;;;7.30;39.80;;;;;;611405;233;26874;-65
2022/04/03 11:26:31;;;;;;;5.40;2.08;;;8.00;39.50;;;;;;610789;234;26690;-63
2022/04/03 11:28:59;;;;;;;4.22;1.95;;;8.30;39.00;;;;;;610749;235;26575;-64
2022/04/03 11:31:27;;;;;;;5.32;1.90;;;8.30;38.80;;;;;;610695;235;26838;-63
2022/04/03 11:33:54;;;;;;;5.30;1.87;;;8.60;38.40;;;;;;610402;236;27115;-65
2022/04/03 11:36:27;;;;;;;5.32;2.20;;;8.00;38.50;;;;;;610444;235;26604;-65
2022/04/03 11:38:55;;;;;;;2.65;1.77;;;8.00;38.50;;;;;;609268;236;26606;-64
2022/04/03 11:41:28;;;;;;;1.83;1.70;;;7.70;38.30;;;;;;610174;236;26589;-64
2022/04/03 11:43:59;;;;;;;3.72;2.03;;;7.60;38.90;;;;;;610127;235;26637;-63
2022/04/03 11:46:25;;;;;;;2.92;1.87;;;7.70;39.30;;;;;;610108;236;26670;-64
2022/04/03 11:48:52;;;;;;;3.00;1.48;;;8.10;39.60;;;;;;610160;236;26888;-64
2022/04/03 11:51:19;;;;;;;2.25;1.60;;;8.40;39.50;;;;;;610164;234;26632;-64
2022/04/03 11:53:49;;;;;;;3.10;1.62;;;8.20;39.30;;;;;;610124;235;26653;-63
2022/04/03 11:56:15;;;;;;;4.62;1.35;;;8.00;39.30;;;;;;609675;236;26887;-63
2022/04/03 11:58:44;;;;;;;1.83;1.45;;;8.20;39.00;;;;;;610036;235;26652;-63
2022/04/03 12:01:12;;;;;;;1.52;1.42;;;8.70;39.10;;;;;;609834;234;26609;-64
2022/04/03 12:03:39;;;;;;;2.70;1.50;;;8.70;38.90;;;;;;609872;235;26805;-64
2022/04/03 12:06:12;;;;;;;1.98;1.37;;;9.00;38.60;;;;;;609869;235;26674;-63
2022/04/03 12:08:40;;;;;;;2.53;1.48;;;8.90;38.70;;;;;;609714;236;26598;-64
2022/04/03 12:11:19;;;;;;;3.42;1.48;;;8.60;38.90;;;;;;609904;235;26580;-63
2022/04/03 12:13:47;;;;;;;1.42;1.33;;;8.70;39.50;;;;;;609856;235;26588;-63
2022/04/03 12:16:15;;;;;;;1.58;1.48;;;8.30;39.80;;;;;;609894;235;27100;-63
2022/04/03 12:19:03;;;;;;;1.62;1.27;;;8.20;40.20;;;;;;609789;230;26843;-63
2022/04/03 12:21:39;;;;;;;2.25;1.37;;;7.60;40.60;;;;;;610017;235;26802;-63
2022/04/03 12:24:09;;;;;;;2.35;1.27;;;7.60;41.70;;;;;;609839;231;26618;-62
2022/04/03 12:26:37;;;;;;;1.70;1.55;;;7.60;41.70;;;;;;609716;236;26626;-63
2022/04/03 12:29:07;;;;;;;1.30;1.20;;;7.90;41.60;;;;;;609970;235;26593;-62
2022/04/03 12:31:34;;;;;;;2.37;1.10;;;8.50;41.20;;;;;;609923;236;26579;-63
2022/04/03 12:34:15;;;;;;;1.00;1.00;;;8.60;40.50;;;;;;610160;233;26825;-63
2022/04/03 12:36:43;;;;;;;3.78;1.50;;;8.50;40.60;;;;;;611310;234;26616;-63
2022/04/03 12:39:22;;;;;;;2.37;1.30;;;8.60;40.50;;;;;;609780;235;26643;-63
2022/04/03 12:41:49;;;;;;;3.05;1.27;;;8.80;40.40;;;;;;614888;234;26633;-64
2022/04/03 12:44:17;;;;;;;1.25;1.17;;;8.80;40.30;;;;;;614608;234;26827;-64
2022/04/03 12:46:45;;;;;;;4.95;1.27;;;9.00;40.00;;;;;;615061;234;26585;-64
2022/04/03 12:49:18;;;;;;;1.23;1.20;;;9.00;40.00;;;;;;615001;234;26538;-63
2022/04/03 12:51:45;;;;;;;2.20;1.40;;;9.20;40.00;;;;;;615052;234;26555;-63
2022/04/03 12:54:12;;;;;;;1.92;1.00;;;8.90;39.60;;;;;;614916;234;26827;-62
2022/04/03 12:59:19;;;;;;;1.37;1.12;;;8.60;40.10;;;;;;615021;234;26583;-64